sensor_id;sensor_type;location;lat;lon;timestamp;temperature;humidity
6206;DHT22;3136;48.788;9.772;2022-09-12T00:00:41;10.70;1.00
6206;DHT22;3136;48.788;9.772;2022-09-12T00:03:07;10.70;1.00
6206;DHT22;3136;48.788;9.772;2022-09-12T00:05:33;10.60;1.00
6206;DHT22;3136;48.788;9.772;2022-09-12T00:07:59;10.60;1.00
6206;DHT22;3136;48.788;9.772;2022-09-12T00:10:25;10.60;1.00
6206;DHT22;3136;48.788;9.772;2022-09-12T00:12:51;10.50;1.00
6206;DHT22;3136;48.788;9.772;2022-09-12T00:15:17;10.60;1.00
6206;DHT22;3136;48.788;9.772;2022-09-12T00:17:42;10.50;1.00
6206;DHT22;3136;48.788;9.772;2022-09-12T00:20:09;10.50;1.00
6206;DHT22;3136;48.788;9.772;2022-09-12T00:22:35;10.50;1.00
6206;DHT22;3136;48.788;9.772;2022-09-12T00:25:02;10.50;1.00
6206;DHT22;3136;48.788;9.772;2022-09-12T00:27:28;10.40;1.00
6206;DHT22;3136;48.788;9.772;2022-09-12T00:29:54;10.40;1.00
6206;DHT22;3136;48.788;9.772;2022-09-12T00:32:20;10.40;1.00
6206;DHT22;3136;48.788;9.772;2022-09-12T00:34:46;10.40;1.00
6206;DHT22;3136;48.788;9.772;2022-09-12T00:37:12;10.40;1.00
6206;DHT22;3136;48.788;9.772;2022-09-12T00:39:37;10.30;1.00
6206;DHT22;3136;48.788;9.772;2022-09-12T00:42:03;10.30;1.00
6206;DHT22;3136;48.788;9.772;2022-09-12T00:47:12;10.20;1.00
6206;DHT22;3136;48.788;9.772;2022-09-12T00:50:09;10.20;1.00
6206;DHT22;3136;48.788;9.772;2022-09-12T00:52:46;10.20;1.00
6206;DHT22;3136;48.788;9.772;2022-09-12T00:55:26;10.10;1.00
6206;DHT22;3136;48.788;9.772;2022-09-12T00:57:56;10.10;1.00
6206;DHT22;3136;48.788;9.772;2022-09-12T01:00:25;10.00;1.00
6206;DHT22;3136;48.788;9.772;2022-09-12T01:02:57;10.00;1.00
6206;DHT22;3136;48.788;9.772;2022-09-12T01:05:25;10.00;1.00
6206;DHT22;3136;48.788;9.772;2022-09-12T01:07:52;10.00;1.00
6206;DHT22;3136;48.788;9.772;2022-09-12T01:10:19;10.00;1.00
6206;DHT22;3136;48.788;9.772;2022-09-12T01:12:45;9.60;1.00
6206;DHT22;3136;48.788;9.772;2022-09-12T01:15:11;9.90;1.00
6206;DHT22;3136;48.788;9.772;2022-09-12T01:20:45;9.90;1.00
6206;DHT22;3136;48.788;9.772;2022-09-12T01:29:02;9.80;1.00
6206;DHT22;3136;48.788;9.772;2022-09-12T01:34:43;9.80;1.00
6206;DHT22;3136;48.788;9.772;2022-09-12T01:37:25;9.80;1.00
6206;DHT22;3136;48.788;9.772;2022-09-12T01:40:02;9.90;1.00
6206;DHT22;3136;48.788;9.772;2022-09-12T01:45:25;9.80;1.00
6206;DHT22;3136;48.788;9.772;2022-09-12T01:48:01;9.80;1.00
6206;DHT22;3136;48.788;9.772;2022-09-12T01:50:36;9.70;1.00
6206;DHT22;3136;48.788;9.772;2022-09-12T01:53:14;9.80;1.00
6206;DHT22;3136;48.788;9.772;2022-09-12T01:55:47;9.80;1.00
6206;DHT22;3136;48.788;9.772;2022-09-12T01:58:27;9.70;1.00
6206;DHT22;3136;48.788;9.772;2022-09-12T02:01:05;9.70;1.00
6206;DHT22;3136;48.788;9.772;2022-09-12T02:03:38;9.60;1.00
6206;DHT22;3136;48.788;9.772;2022-09-12T02:06:10;9.60;1.00
6206;DHT22;3136;48.788;9.772;2022-09-12T02:08:52;9.70;1.00
6206;DHT22;3136;48.788;9.772;2022-09-12T02:11:19;9.60;1.00
6206;DHT22;3136;48.788;9.772;2022-09-12T02:14:00;9.60;99.90
6206;DHT22;3136;48.788;9.772;2022-09-12T02:18:59;9.40;99.90
6206;DHT22;3136;48.788;9.772;2022-09-12T02:21:29;9.40;99.90
6206;DHT22;3136;48.788;9.772;2022-09-12T02:23:58;9.40;99.90
6206;DHT22;3136;48.788;9.772;2022-09-12T02:26:43;9.40;99.90
6206;DHT22;3136;48.788;9.772;2022-09-12T02:29:10;10.70;99.90
6206;DHT22;3136;48.788;9.772;2022-09-12T02:31:46;9.30;99.90
6206;DHT22;3136;48.788;9.772;2022-09-12T02:34:40;9.30;1.00
6206;DHT22;3136;48.788;9.772;2022-09-12T02:37:11;9.30;1.00
6206;DHT22;3136;48.788;9.772;2022-09-12T02:39:41;9.30;1.00
6206;DHT22;3136;48.788;9.772;2022-09-12T02:42:06;9.30;1.00
6206;DHT22;3136;48.788;9.772;2022-09-12T02:44:32;9.30;1.00
6206;DHT22;3136;48.788;9.772;2022-09-12T02:50:02;9.20;1.00
6206;DHT22;3136;48.788;9.772;2022-09-12T02:52:30;9.20;1.00
6206;DHT22;3136;48.788;9.772;2022-09-12T02:54:57;9.20;1.00
6206;DHT22;3136;48.788;9.772;2022-09-12T02:57:23;9.20;1.00
6206;DHT22;3136;48.788;9.772;2022-09-12T02:59:52;9.20;1.00
6206;DHT22;3136;48.788;9.772;2022-09-12T03:02:31;9.20;1.00
6206;DHT22;3136;48.788;9.772;2022-09-12T03:10:50;9.00;1.00
6206;DHT22;3136;48.788;9.772;2022-09-12T03:13:22;9.00;1.00
6206;DHT22;3136;48.788;9.772;2022-09-12T03:21:21;8.90;1.00
6206;DHT22;3136;48.788;9.772;2022-09-12T03:24:17;8.90;1.00
6206;DHT22;3136;48.788;9.772;2022-09-12T03:26:49;8.90;1.00
6206;DHT22;3136;48.788;9.772;2022-09-12T03:29:18;8.90;1.00
6206;DHT22;3136;48.788;9.772;2022-09-12T03:31:55;8.80;1.00
6206;DHT22;3136;48.788;9.772;2022-09-12T03:34:22;8.80;1.00
6206;DHT22;3136;48.788;9.772;2022-09-12T03:36:48;8.80;1.00
6206;DHT22;3136;48.788;9.772;2022-09-12T03:39:15;8.80;1.00
6206;DHT22;3136;48.788;9.772;2022-09-12T03:41:41;8.80;1.00
6206;DHT22;3136;48.788;9.772;2022-09-12T03:44:06;8.80;1.00
6206;DHT22;3136;48.788;9.772;2022-09-12T03:46:32;8.80;1.00
6206;DHT22;3136;48.788;9.772;2022-09-12T03:48:58;8.70;1.00
6206;DHT22;3136;48.788;9.772;2022-09-12T03:51:23;8.70;1.00
6206;DHT22;3136;48.788;9.772;2022-09-12T03:53:49;8.80;1.00
6206;DHT22;3136;48.788;9.772;2022-09-12T03:56:16;8.80;1.00
6206;DHT22;3136;48.788;9.772;2022-09-12T03:58:42;8.70;1.00
6206;DHT22;3136;48.788;9.772;2022-09-12T04:01:13;8.70;1.00
6206;DHT22;3136;48.788;9.772;2022-09-12T04:03:40;8.70;1.00
6206;DHT22;3136;48.788;9.772;2022-09-12T04:06:07;8.70;1.00
6206;DHT22;3136;48.788;9.772;2022-09-12T04:08:34;8.70;1.00
6206;DHT22;3136;48.788;9.772;2022-09-12T04:11:19;8.70;1.00
6206;DHT22;3136;48.788;9.772;2022-09-12T04:13:45;8.60;1.00
6206;DHT22;3136;48.788;9.772;2022-09-12T04:16:12;8.60;1.00
6206;DHT22;3136;48.788;9.772;2022-09-12T04:18:38;8.60;1.00
6206;DHT22;3136;48.788;9.772;2022-09-12T04:21:05;8.60;1.00
6206;DHT22;3136;48.788;9.772;2022-09-12T04:23:32;8.50;1.00
6206;DHT22;3136;48.788;9.772;2022-09-12T04:25:59;8.50;1.00
6206;DHT22;3136;48.788;9.772;2022-09-12T04:28:26;8.50;1.00
6206;DHT22;3136;48.788;9.772;2022-09-12T04:30:53;8.50;1.00
6206;DHT22;3136;48.788;9.772;2022-09-12T04:33:19;8.40;1.00
6206;DHT22;3136;48.788;9.772;2022-09-12T04:35:44;8.40;1.00
6206;DHT22;3136;48.788;9.772;2022-09-12T04:38:10;8.40;1.00
6206;DHT22;3136;48.788;9.772;2022-09-12T04:40:36;8.40;1.00
6206;DHT22;3136;48.788;9.772;2022-09-12T04:43:02;8.50;1.00
6206;DHT22;3136;48.788;9.772;2022-09-12T04:45:28;8.50;1.00
6206;DHT22;3136;48.788;9.772;2022-09-12T04:47:53;8.50;1.00
6206;DHT22;3136;48.788;9.772;2022-09-12T04:50:19;8.50;1.00
6206;DHT22;3136;48.788;9.772;2022-09-12T04:52:52;8.50;1.00
6206;DHT22;3136;48.788;9.772;2022-09-12T04:55:20;8.50;1.00
6206;DHT22;3136;48.788;9.772;2022-09-12T04:57:46;8.50;1.00
6206;DHT22;3136;48.788;9.772;2022-09-12T05:00:12;8.40;1.00
6206;DHT22;3136;48.788;9.772;2022-09-12T05:02:39;8.40;1.00
6206;DHT22;3136;48.788;9.772;2022-09-12T05:05:05;8.40;1.00
6206;DHT22;3136;48.788;9.772;2022-09-12T05:07:31;8.40;1.00
6206;DHT22;3136;48.788;9.772;2022-09-12T05:09:57;8.30;1.00
6206;DHT22;3136;48.788;9.772;2022-09-12T05:12:23;8.30;1.00
6206;DHT22;3136;48.788;9.772;2022-09-12T05:14:48;8.40;1.00
6206;DHT22;3136;48.788;9.772;2022-09-12T05:17:14;8.40;1.00
6206;DHT22;3136;48.788;9.772;2022-09-12T05:19:39;8.40;1.00
6206;DHT22;3136;48.788;9.772;2022-09-12T05:22:05;8.30;1.00
6206;DHT22;3136;48.788;9.772;2022-09-12T05:24:31;8.30;1.00
6206;DHT22;3136;48.788;9.772;2022-09-12T05:26:57;8.30;1.00
6206;DHT22;3136;48.788;9.772;2022-09-12T05:29:23;8.40;1.00
6206;DHT22;3136;48.788;9.772;2022-09-12T05:31:49;8.40;1.00
6206;DHT22;3136;48.788;9.772;2022-09-12T05:34:16;8.40;1.00
6206;DHT22;3136;48.788;9.772;2022-09-12T05:36:42;8.40;1.00
6206;DHT22;3136;48.788;9.772;2022-09-12T05:39:08;8.40;1.00
6206;DHT22;3136;48.788;9.772;2022-09-12T05:41:34;8.40;1.00
6206;DHT22;3136;48.788;9.772;2022-09-12T05:44:05;8.50;1.00
6206;DHT22;3136;48.788;9.772;2022-09-12T05:46:39;8.50;1.00
6206;DHT22;3136;48.788;9.772;2022-09-12T05:49:07;8.60;1.00
6206;DHT22;3136;48.788;9.772;2022-09-12T05:51:36;8.70;1.00
6206;DHT22;3136;48.788;9.772;2022-09-12T05:54:05;8.70;1.00
6206;DHT22;3136;48.788;9.772;2022-09-12T05:56:33;8.80;1.00
6206;DHT22;3136;48.788;9.772;2022-09-12T05:59:03;8.90;1.00
6206;DHT22;3136;48.788;9.772;2022-09-12T06:01:30;9.00;1.00
6206;DHT22;3136;48.788;9.772;2022-09-12T06:03:58;9.10;1.00
6206;DHT22;3136;48.788;9.772;2022-09-12T06:06:28;9.10;1.00
6206;DHT22;3136;48.788;9.772;2022-09-12T06:08:59;9.20;1.00
6206;DHT22;3136;48.788;9.772;2022-09-12T06:11:28;9.20;1.00
6206;DHT22;3136;48.788;9.772;2022-09-12T06:13:55;9.30;1.00
6206;DHT22;3136;48.788;9.772;2022-09-12T06:16:23;9.40;1.00
6206;DHT22;3136;48.788;9.772;2022-09-12T06:18:54;9.50;1.00
6206;DHT22;3136;48.788;9.772;2022-09-12T06:21:22;9.60;1.00
6206;DHT22;3136;48.788;9.772;2022-09-12T06:23:48;9.60;1.00
6206;DHT22;3136;48.788;9.772;2022-09-12T06:26:15;9.80;1.00
6206;DHT22;3136;48.788;9.772;2022-09-12T06:28:43;9.80;1.00
6206;DHT22;3136;48.788;9.772;2022-09-12T06:31:14;9.90;1.00
6206;DHT22;3136;48.788;9.772;2022-09-12T06:33:42;10.00;1.00
6206;DHT22;3136;48.788;9.772;2022-09-12T06:36:14;10.10;1.00
6206;DHT22;3136;48.788;9.772;2022-09-12T06:38:40;10.20;1.00
6206;DHT22;3136;48.788;9.772;2022-09-12T06:41:08;10.20;1.00
6206;DHT22;3136;48.788;9.772;2022-09-12T06:43:34;10.30;1.00
6206;DHT22;3136;48.788;9.772;2022-09-12T06:46:00;10.40;1.00
6206;DHT22;3136;48.788;9.772;2022-09-12T06:48:26;10.50;99.90
6206;DHT22;3136;48.788;9.772;2022-09-12T06:50:56;10.60;99.90
6206;DHT22;3136;48.788;9.772;2022-09-12T06:53:23;10.70;99.90
6206;DHT22;3136;48.788;9.772;2022-09-12T06:55:59;10.90;99.90
6206;DHT22;3136;48.788;9.772;2022-09-12T06:58:26;11.00;99.90
6206;DHT22;3136;48.788;9.772;2022-09-12T07:00:52;11.10;99.90
6206;DHT22;3136;48.788;9.772;2022-09-12T07:03:18;11.20;99.90
6206;DHT22;3136;48.788;9.772;2022-09-12T07:05:46;11.30;99.90
6206;DHT22;3136;48.788;9.772;2022-09-12T07:08:12;11.40;45.70
6206;DHT22;3136;48.788;9.772;2022-09-12T07:10:38;11.60;1.00
6206;DHT22;3136;48.788;9.772;2022-09-12T07:13:03;11.60;1.00
6206;DHT22;3136;48.788;9.772;2022-09-12T07:15:29;11.80;1.00
6206;DHT22;3136;48.788;9.772;2022-09-12T07:17:54;11.90;99.90
6206;DHT22;3136;48.788;9.772;2022-09-12T07:20:20;12.10;1.00
6206;DHT22;3136;48.788;9.772;2022-09-12T07:22:45;12.20;1.00
6206;DHT22;3136;48.788;9.772;2022-09-12T07:25:11;12.30;99.90
6206;DHT22;3136;48.788;9.772;2022-09-12T07:27:36;12.50;99.90
6206;DHT22;3136;48.788;9.772;2022-09-12T07:30:04;12.60;1.00
6206;DHT22;3136;48.788;9.772;2022-09-12T07:32:30;12.80;1.00
6206;DHT22;3136;48.788;9.772;2022-09-12T07:34:56;12.90;1.00
6206;DHT22;3136;48.788;9.772;2022-09-12T07:37:21;13.10;1.00
6206;DHT22;3136;48.788;9.772;2022-09-12T07:39:48;13.10;1.00
6206;DHT22;3136;48.788;9.772;2022-09-12T07:42:13;13.30;99.90
6206;DHT22;3136;48.788;9.772;2022-09-12T07:44:39;13.60;1.00
6206;DHT22;3136;48.788;9.772;2022-09-12T07:47:05;13.70;99.90
6206;DHT22;3136;48.788;9.772;2022-09-12T07:49:30;13.80;99.90
6206;DHT22;3136;48.788;9.772;2022-09-12T07:51:56;13.90;1.00
6206;DHT22;3136;48.788;9.772;2022-09-12T07:54:22;14.00;99.90
6206;DHT22;3136;48.788;9.772;2022-09-12T07:56:47;14.20;99.90
6206;DHT22;3136;48.788;9.772;2022-09-12T07:59:13;14.30;76.40
6206;DHT22;3136;48.788;9.772;2022-09-12T08:01:39;14.50;20.60
6206;DHT22;3136;48.788;9.772;2022-09-12T08:04:06;14.60;1.00
6206;DHT22;3136;48.788;9.772;2022-09-12T08:06:32;14.80;1.00
6206;DHT22;3136;48.788;9.772;2022-09-12T08:09:00;14.90;1.00
6206;DHT22;3136;48.788;9.772;2022-09-12T08:11:28;15.10;1.00
6206;DHT22;3136;48.788;9.772;2022-09-12T08:13:54;15.20;17.70
6206;DHT22;3136;48.788;9.772;2022-09-12T08:16:25;15.40;1.00
6206;DHT22;3136;48.788;9.772;2022-09-12T08:18:51;15.50;1.00
6206;DHT22;3136;48.788;9.772;2022-09-12T08:21:25;15.60;1.00
6206;DHT22;3136;48.788;9.772;2022-09-12T08:23:52;15.70;99.90
6206;DHT22;3136;48.788;9.772;2022-09-12T08:26:18;15.90;99.90
6206;DHT22;3136;48.788;9.772;2022-09-12T08:28:44;16.10;99.90
6206;DHT22;3136;48.788;9.772;2022-09-12T08:31:12;16.30;99.90
6206;DHT22;3136;48.788;9.772;2022-09-12T08:33:39;16.40;99.90
6206;DHT22;3136;48.788;9.772;2022-09-12T08:36:06;16.50;99.90
6206;DHT22;3136;48.788;9.772;2022-09-12T08:38:33;16.50;99.90
6206;DHT22;3136;48.788;9.772;2022-09-12T08:41:25;16.70;99.90
6206;DHT22;3136;48.788;9.772;2022-09-12T08:46:39;17.00;99.90
6206;DHT22;3136;48.788;9.772;2022-09-12T08:49:12;17.20;99.90
6206;DHT22;3136;48.788;9.772;2022-09-12T08:51:40;17.30;99.90
6206;DHT22;3136;48.788;9.772;2022-09-12T08:54:17;17.60;99.90
6206;DHT22;3136;48.788;9.772;2022-09-12T08:56:44;17.80;99.90
6206;DHT22;3136;48.788;9.772;2022-09-12T08:59:10;18.00;99.90
6206;DHT22;3136;48.788;9.772;2022-09-12T09:01:40;18.20;99.90
6206;DHT22;3136;48.788;9.772;2022-09-12T09:04:47;18.40;99.90
6206;DHT22;3136;48.788;9.772;2022-09-12T09:07:24;18.60;99.90
6206;DHT22;3136;48.788;9.772;2022-09-12T09:10:21;18.70;99.90
6206;DHT22;3136;48.788;9.772;2022-09-12T09:13:10;18.80;99.90
6206;DHT22;3136;48.788;9.772;2022-09-12T09:18:23;19.00;99.90
6206;DHT22;3136;48.788;9.772;2022-09-12T09:21:02;19.30;99.90
6206;DHT22;3136;48.788;9.772;2022-09-12T09:23:45;19.40;99.90
6206;DHT22;3136;48.788;9.772;2022-09-12T09:26:19;19.50;99.90
6206;DHT22;3136;48.788;9.772;2022-09-12T09:31:45;19.60;99.90
6206;DHT22;3136;48.788;9.772;2022-09-12T09:34:18;19.80;99.90
6206;DHT22;3136;48.788;9.772;2022-09-12T09:39:26;20.30;99.90
6206;DHT22;3136;48.788;9.772;2022-09-12T09:44:52;20.60;99.90
6206;DHT22;3136;48.788;9.772;2022-09-12T09:47:18;20.80;99.90
6206;DHT22;3136;48.788;9.772;2022-09-12T09:49:45;21.00;99.90
6206;DHT22;3136;48.788;9.772;2022-09-12T09:52:15;21.00;99.90
6206;DHT22;3136;48.788;9.772;2022-09-12T09:54:48;21.10;99.90
6206;DHT22;3136;48.788;9.772;2022-09-12T10:00:18;21.00;99.90
6206;DHT22;3136;48.788;9.772;2022-09-12T10:05:49;21.30;99.90
6206;DHT22;3136;48.788;9.772;2022-09-12T10:08:24;21.40;99.90
6206;DHT22;3136;48.788;9.772;2022-09-12T10:11:04;21.40;97.40
6206;DHT22;3136;48.788;9.772;2022-09-12T10:13:38;21.90;99.20
6206;DHT22;3136;48.788;9.772;2022-09-12T10:16:16;22.40;97.50
6206;DHT22;3136;48.788;9.772;2022-09-12T10:18:43;23.40;93.40
6206;DHT22;3136;48.788;9.772;2022-09-12T10:24:05;25.40;76.40
6206;DHT22;3136;48.788;9.772;2022-09-12T10:26:37;26.70;68.50
6206;DHT22;3136;48.788;9.772;2022-09-12T10:29:20;27.70;64.60
6206;DHT22;3136;48.788;9.772;2022-09-12T10:31:51;28.70;61.60
6206;DHT22;3136;48.788;9.772;2022-09-12T10:34:24;29.30;55.20
6206;DHT22;3136;48.788;9.772;2022-09-12T10:36:56;29.70;55.10
6206;DHT22;3136;48.788;9.772;2022-09-12T10:39:23;29.60;52.10
6206;DHT22;3136;48.788;9.772;2022-09-12T10:41:48;29.60;50.40
6206;DHT22;3136;48.788;9.772;2022-09-12T10:44:17;29.30;52.20
6206;DHT22;3136;48.788;9.772;2022-09-12T10:46:43;29.30;49.80
6206;DHT22;3136;48.788;9.772;2022-09-12T10:49:29;29.60;48.70
6206;DHT22;3136;48.788;9.772;2022-09-12T10:51:57;29.90;46.60
6206;DHT22;3136;48.788;9.772;2022-09-12T10:54:26;29.70;45.70
6206;DHT22;3136;48.788;9.772;2022-09-12T11:03:08;30.20;41.50
6206;DHT22;3136;48.788;9.772;2022-09-12T11:05:57;30.10;41.20
6206;DHT22;3136;48.788;9.772;2022-09-12T11:08:46;30.40;39.60
6206;DHT22;3136;48.788;9.772;2022-09-12T11:11:42;30.50;39.50
6206;DHT22;3136;48.788;9.772;2022-09-12T11:17:31;30.10;36.60
6206;DHT22;3136;48.788;9.772;2022-09-12T11:20:19;30.40;37.50
6206;DHT22;3136;48.788;9.772;2022-09-12T11:31:39;31.70;30.40
6206;DHT22;3136;48.788;9.772;2022-09-12T11:34:09;31.80;31.10
6206;DHT22;3136;48.788;9.772;2022-09-12T11:39:15;32.20;30.00
6206;DHT22;3136;48.788;9.772;2022-09-12T11:41:43;32.50;29.00
6206;DHT22;3136;48.788;9.772;2022-09-12T11:44:34;32.50;27.40
6206;DHT22;3136;48.788;9.772;2022-09-12T11:47:04;32.60;27.30
6206;DHT22;3136;48.788;9.772;2022-09-12T11:49:39;32.20;27.20
6206;DHT22;3136;48.788;9.772;2022-09-12T11:52:10;32.00;27.90
6206;DHT22;3136;48.788;9.772;2022-09-12T11:54:41;32.10;26.40
6206;DHT22;3136;48.788;9.772;2022-09-12T11:59:53;31.90;25.30
6206;DHT22;3136;48.788;9.772;2022-09-12T12:02:32;30.90;24.10
6206;DHT22;3136;48.788;9.772;2022-09-12T12:07:55;31.20;23.20
6206;DHT22;3136;48.788;9.772;2022-09-12T12:10:42;32.20;23.00
6206;DHT22;3136;48.788;9.772;2022-09-12T12:13:19;32.80;21.50
6206;DHT22;3136;48.788;9.772;2022-09-12T12:15:47;33.10;20.60
6206;DHT22;3136;48.788;9.772;2022-09-12T12:18:24;33.20;20.90
6206;DHT22;3136;48.788;9.772;2022-09-12T12:20:51;32.70;19.80
6206;DHT22;3136;48.788;9.772;2022-09-12T12:25:59;31.80;19.00
6206;DHT22;3136;48.788;9.772;2022-09-12T12:31:07;32.10;18.30
6206;DHT22;3136;48.788;9.772;2022-09-12T12:36:04;32.90;18.30
6206;DHT22;3136;48.788;9.772;2022-09-12T12:38:35;33.10;18.00
6206;DHT22;3136;48.788;9.772;2022-09-12T12:43:52;32.30;15.80
6206;DHT22;3136;48.788;9.772;2022-09-12T12:46:22;32.00;16.00
6206;DHT22;3136;48.788;9.772;2022-09-12T12:57:18;34.00;13.10
6206;DHT22;3136;48.788;9.772;2022-09-12T12:59:57;34.60;13.50
6206;DHT22;3136;48.788;9.772;2022-09-12T13:02:34;35.10;12.50
6206;DHT22;3136;48.788;9.772;2022-09-12T13:05:05;35.40;12.20
6206;DHT22;3136;48.788;9.772;2022-09-12T13:07:37;35.30;11.10
6206;DHT22;3136;48.788;9.772;2022-09-12T13:10:05;35.30;9.80
6206;DHT22;3136;48.788;9.772;2022-09-12T13:12:44;34.50;9.80
6206;DHT22;3136;48.788;9.772;2022-09-12T13:18:01;34.40;10.50
6206;DHT22;3136;48.788;9.772;2022-09-12T13:20:30;34.50;9.20
6206;DHT22;3136;48.788;9.772;2022-09-12T13:22:57;34.70;10.20
6206;DHT22;3136;48.788;9.772;2022-09-12T13:25:25;34.70;8.00
6206;DHT22;3136;48.788;9.772;2022-09-12T13:28:15;34.80;8.30
6206;DHT22;3136;48.788;9.772;2022-09-12T13:30:45;34.80;7.60
6206;DHT22;3136;48.788;9.772;2022-09-12T13:36:08;34.80;6.60
6206;DHT22;3136;48.788;9.772;2022-09-12T13:44:08;34.00;6.10
6206;DHT22;3136;48.788;9.772;2022-09-12T13:46:35;33.20;3.90
6206;DHT22;3136;48.788;9.772;2022-09-12T13:49:10;32.50;4.80
6206;DHT22;3136;48.788;9.772;2022-09-12T13:51:37;31.40;6.40
6206;DHT22;3136;48.788;9.772;2022-09-12T13:54:04;30.30;6.10
6206;DHT22;3136;48.788;9.772;2022-09-12T13:56:29;29.20;7.20
6206;DHT22;3136;48.788;9.772;2022-09-12T13:58:56;28.20;9.80
6206;DHT22;3136;48.788;9.772;2022-09-12T14:01:34;27.50;10.10
6206;DHT22;3136;48.788;9.772;2022-09-12T14:07:00;26.60;11.10
6206;DHT22;3136;48.788;9.772;2022-09-12T14:09:33;26.80;10.80
6206;DHT22;3136;48.788;9.772;2022-09-12T14:12:03;27.10;10.40
6206;DHT22;3136;48.788;9.772;2022-09-12T14:14:32;27.30;11.20
6206;DHT22;3136;48.788;9.772;2022-09-12T14:16:58;27.30;11.20
6206;DHT22;3136;48.788;9.772;2022-09-12T14:19:25;27.00;25.60
6206;DHT22;3136;48.788;9.772;2022-09-12T14:21:55;26.60;10.50
6206;DHT22;3136;48.788;9.772;2022-09-12T14:24:21;26.10;26.40
6206;DHT22;3136;48.788;9.772;2022-09-12T14:26:51;25.70;12.40
6206;DHT22;3136;48.788;9.772;2022-09-12T14:29:19;25.40;13.40
6206;DHT22;3136;48.788;9.772;2022-09-12T14:31:45;25.10;14.10
6206;DHT22;3136;48.788;9.772;2022-09-12T14:34:14;24.80;14.20
6206;DHT22;3136;48.788;9.772;2022-09-12T14:36:48;24.70;14.10
6206;DHT22;3136;48.788;9.772;2022-09-12T14:39:30;24.50;14.30
6206;DHT22;3136;48.788;9.772;2022-09-12T14:44:32;24.30;31.40
6206;DHT22;3136;48.788;9.772;2022-09-12T14:47:10;24.10;16.40
6206;DHT22;3136;48.788;9.772;2022-09-12T14:49:36;24.00;16.20
6206;DHT22;3136;48.788;9.772;2022-09-12T14:52:07;23.90;17.90
6206;DHT22;3136;48.788;9.772;2022-09-12T14:54:58;23.90;16.90
6206;DHT22;3136;48.788;9.772;2022-09-12T14:57:32;23.80;17.10
6206;DHT22;3136;48.788;9.772;2022-09-12T15:02:36;23.80;18.80
6206;DHT22;3136;48.788;9.772;2022-09-12T15:07:59;23.70;18.10
6206;DHT22;3136;48.788;9.772;2022-09-12T15:10:35;23.60;18.60
6206;DHT22;3136;48.788;9.772;2022-09-12T15:15:39;23.50;19.30
6206;DHT22;3136;48.788;9.772;2022-09-12T15:18:05;23.50;19.60
6206;DHT22;3136;48.788;9.772;2022-09-12T15:20:32;23.40;19.10
6206;DHT22;3136;48.788;9.772;2022-09-12T15:22:58;23.50;19.60
6206;DHT22;3136;48.788;9.772;2022-09-12T15:25:24;23.40;20.00
6206;DHT22;3136;48.788;9.772;2022-09-12T15:27:52;23.40;19.50
6206;DHT22;3136;48.788;9.772;2022-09-12T15:30:17;23.30;19.10
6206;DHT22;3136;48.788;9.772;2022-09-12T15:32:44;23.30;20.40
6206;DHT22;3136;48.788;9.772;2022-09-12T15:35:21;23.20;19.30
6206;DHT22;3136;48.788;9.772;2022-09-12T15:37:48;23.10;20.40
6206;DHT22;3136;48.788;9.772;2022-09-12T15:40:14;23.10;20.30
6206;DHT22;3136;48.788;9.772;2022-09-12T15:42:41;23.10;22.30
6206;DHT22;3136;48.788;9.772;2022-09-12T15:45:26;23.10;21.80
6206;DHT22;3136;48.788;9.772;2022-09-12T15:47:53;23.10;21.60
6206;DHT22;3136;48.788;9.772;2022-09-12T15:50:19;23.00;21.40
6206;DHT22;3136;48.788;9.772;2022-09-12T15:52:44;23.00;22.60
6206;DHT22;3136;48.788;9.772;2022-09-12T15:55:16;23.00;22.00
6206;DHT22;3136;48.788;9.772;2022-09-12T15:57:42;22.90;22.80
6206;DHT22;3136;48.788;9.772;2022-09-12T16:00:08;22.90;28.90
6206;DHT22;3136;48.788;9.772;2022-09-12T16:02:34;22.90;23.20
6206;DHT22;3136;48.788;9.772;2022-09-12T16:04:59;22.80;23.50
6206;DHT22;3136;48.788;9.772;2022-09-12T16:07:25;22.80;22.80
6206;DHT22;3136;48.788;9.772;2022-09-12T16:09:51;22.70;23.00
6206;DHT22;3136;48.788;9.772;2022-09-12T16:12:17;22.70;23.30
6206;DHT22;3136;48.788;9.772;2022-09-12T16:14:42;22.60;22.70
6206;DHT22;3136;48.788;9.772;2022-09-12T16:17:12;22.60;23.50
6206;DHT22;3136;48.788;9.772;2022-09-12T16:19:38;22.60;25.00
6206;DHT22;3136;48.788;9.772;2022-09-12T16:22:03;22.40;24.20
6206;DHT22;3136;48.788;9.772;2022-09-12T16:24:29;22.40;24.60
6206;DHT22;3136;48.788;9.772;2022-09-12T16:26:55;22.40;25.80
6206;DHT22;3136;48.788;9.772;2022-09-12T16:29:21;22.40;27.30
6206;DHT22;3136;48.788;9.772;2022-09-12T16:31:46;22.30;25.40
6206;DHT22;3136;48.788;9.772;2022-09-12T16:34:12;22.30;27.40
6206;DHT22;3136;48.788;9.772;2022-09-12T16:36:38;22.20;26.50
6206;DHT22;3136;48.788;9.772;2022-09-12T16:39:03;22.10;27.50
6206;DHT22;3136;48.788;9.772;2022-09-12T16:41:30;22.00;28.00
6206;DHT22;3136;48.788;9.772;2022-09-12T16:43:56;21.80;28.60
6206;DHT22;3136;48.788;9.772;2022-09-12T16:46:24;21.80;31.30
6206;DHT22;3136;48.788;9.772;2022-09-12T16:48:52;21.60;36.20
6206;DHT22;3136;48.788;9.772;2022-09-12T16:51:20;21.40;37.90
6206;DHT22;3136;48.788;9.772;2022-09-12T16:53:47;21.30;41.80
6206;DHT22;3136;48.788;9.772;2022-09-12T16:56:13;21.20;62.60
6206;DHT22;3136;48.788;9.772;2022-09-12T16:58:40;21.00;43.60
6206;DHT22;3136;48.788;9.772;2022-09-12T17:01:11;20.80;47.80
6206;DHT22;3136;48.788;9.772;2022-09-12T17:03:37;20.60;51.60
6206;DHT22;3136;48.788;9.772;2022-09-12T17:08:29;20.20;58.90
6206;DHT22;3136;48.788;9.772;2022-09-12T17:11:03;20.20;67.10
6206;DHT22;3136;48.788;9.772;2022-09-12T17:13:29;20.40;74.40
6206;DHT22;3136;48.788;9.772;2022-09-12T17:15:55;19.60;81.20
6206;DHT22;3136;48.788;9.772;2022-09-12T17:18:21;19.90;90.30
6206;DHT22;3136;48.788;9.772;2022-09-12T17:20:48;19.10;93.20
6206;DHT22;3136;48.788;9.772;2022-09-12T17:23:13;19.00;95.10
6206;DHT22;3136;48.788;9.772;2022-09-12T17:25:39;18.70;94.00
6206;DHT22;3136;48.788;9.772;2022-09-12T17:28:05;18.60;98.80
6206;DHT22;3136;48.788;9.772;2022-09-12T17:30:34;18.50;99.90
6206;DHT22;3136;48.788;9.772;2022-09-12T17:33:00;18.50;99.90
6206;DHT22;3136;48.788;9.772;2022-09-12T17:35:26;18.20;99.90
6206;DHT22;3136;48.788;9.772;2022-09-12T17:37:52;18.10;99.90
6206;DHT22;3136;48.788;9.772;2022-09-12T17:40:18;17.90;99.90
6206;DHT22;3136;48.788;9.772;2022-09-12T17:42:43;17.80;99.90
6206;DHT22;3136;48.788;9.772;2022-09-12T17:45:10;17.70;99.90
6206;DHT22;3136;48.788;9.772;2022-09-12T17:47:40;17.60;99.90
6206;DHT22;3136;48.788;9.772;2022-09-12T17:50:05;17.40;99.90
6206;DHT22;3136;48.788;9.772;2022-09-12T17:52:32;17.30;99.90
6206;DHT22;3136;48.788;9.772;2022-09-12T17:54:57;17.20;99.90
6206;DHT22;3136;48.788;9.772;2022-09-12T17:57:23;17.10;99.90
6206;DHT22;3136;48.788;9.772;2022-09-12T17:59:48;16.90;99.90
6206;DHT22;3136;48.788;9.772;2022-09-12T18:02:14;16.80;99.90
6206;DHT22;3136;48.788;9.772;2022-09-12T18:04:43;16.70;99.90
6206;DHT22;3136;48.788;9.772;2022-09-12T18:07:14;16.50;99.90
6206;DHT22;3136;48.788;9.772;2022-09-12T18:09:40;16.80;99.90
6206;DHT22;3136;48.788;9.772;2022-09-12T18:12:09;16.40;99.90
6206;DHT22;3136;48.788;9.772;2022-09-12T18:14:35;16.30;99.90
6206;DHT22;3136;48.788;9.772;2022-09-12T18:17:02;16.20;99.90
6206;DHT22;3136;48.788;9.772;2022-09-12T18:19:28;16.10;99.90
6206;DHT22;3136;48.788;9.772;2022-09-12T18:21:54;16.00;99.90
6206;DHT22;3136;48.788;9.772;2022-09-12T18:24:20;16.00;99.90
6206;DHT22;3136;48.788;9.772;2022-09-12T18:26:46;15.90;99.90
6206;DHT22;3136;48.788;9.772;2022-09-12T18:29:11;15.80;99.90
6206;DHT22;3136;48.788;9.772;2022-09-12T18:31:41;15.70;99.90
6206;DHT22;3136;48.788;9.772;2022-09-12T18:34:06;15.60;99.90
6206;DHT22;3136;48.788;9.772;2022-09-12T18:36:37;15.50;99.90
6206;DHT22;3136;48.788;9.772;2022-09-12T18:39:02;15.50;99.90